Time;durP1;ratioP1;P1;durP2;ratioP2;P2;SDS_P1;SDS_P2;PMS_P1;PMS_P2;Temp;Humidity;BMP_temperature;BMP_pressure;BME280_temperature;BME280_humidity;BME280_pressure;Samples;Min_cycle;Max_cycle;Signal;HPM_P1;HPM_P2
2023/12/30 00:00:05;;;;;;;13.93;2.92;;;;;;;7.94;100.00;100771.59;5036379;28;20071;-70
2023/12/30 00:02:48;;;;;;;11.27;2.45;;;;;;;7.91;100.00;100785.66;5047206;28;20116;-70
2023/12/30 00:05:16;;;;;;;12.38;2.50;;;;;;;7.87;100.00;100780.50;5045699;28;20051;-70
2023/12/30 00:07:44;;;;;;;17.95;3.00;;;;;;;7.84;100.00;100773.53;5045405;28;20049;-70
2023/12/30 00:10:12;;;;;;;13.25;2.45;;;;;;;7.83;100.00;100782.31;5043161;28;20127;-70
2023/12/30 00:12:39;;;;;;;11.70;2.30;;;;;;;7.82;100.00;100777.97;5031347;28;20059;-70
2023/12/30 00:15:07;;;;;;;11.88;3.00;;;;;;;7.83;100.00;100781.44;5045737;28;20045;-70
2023/12/30 00:17:34;;;;;;;10.93;2.28;;;;;;;7.82;100.00;100791.09;5046829;28;20056;-70
2023/12/30 00:20:02;;;;;;;11.40;2.33;;;;;;;7.83;100.00;100786.69;5042240;28;20583;-70
2023/12/30 00:22:29;;;;;;;11.63;2.13;;;;;;;7.81;100.00;100791.97;5028817;28;20571;-70
2023/12/30 00:24:56;;;;;;;11.73;2.35;;;;;;;7.82;100.00;100790.22;5047177;28;20041;-70
2023/12/30 00:27:23;;;;;;;12.05;2.50;;;;;;;7.84;100.00;100791.91;5048015;28;20548;-70
2023/12/30 00:29:50;;;;;;;13.02;2.75;;;;;;;7.85;100.00;100795.41;5044811;28;20052;-70
2023/12/30 00:32:17;;;;;;;7.55;2.13;;;;;;;7.85;100.00;100803.28;5033060;28;20048;-70
2023/12/30 00:34:44;;;;;;;13.32;2.10;;;;;;;7.86;100.00;100808.47;5044848;28;20686;-70
2023/12/30 00:37:13;;;;;;;8.85;2.40;;;;;;;7.83;100.00;100829.56;5033411;28;20061;-70
2023/12/30 00:39:41;;;;;;;9.75;1.90;;;;;;;7.79;100.00;100825.25;5032451;28;20048;-70
2023/12/30 00:42:08;;;;;;;14.35;2.10;;;;;;;7.74;100.00;100827.09;5035180;28;20158;-70
2023/12/30 00:44:35;;;;;;;12.88;2.40;;;;;;;7.73;100.00;100844.59;5019554;28;20048;-71
2023/12/30 00:47:02;;;;;;;12.70;2.30;;;;;;;7.74;100.00;100840.22;5035408;28;20547;-71
2023/12/30 00:49:29;;;;;;;10.63;2.00;;;;;;;7.77;100.00;100848.91;5041372;28;20045;-71
2023/12/30 00:51:58;;;;;;;7.93;1.75;;;;;;;7.81;100.00;100848.84;5049651;28;20503;-72
2023/12/30 00:54:26;;;;;;;10.55;2.33;;;;;;;7.78;100.00;100840.13;5048544;28;20418;-71
2023/12/30 00:57:03;;;;;;;8.73;2.03;;;;;;;7.75;100.00;100834.06;5031834;28;20567;-70
2023/12/30 00:59:30;;;;;;;14.63;2.10;;;;;;;7.71;100.00;100827.16;5050277;28;20056;-69
2023/12/30 01:01:57;;;;;;;11.40;2.30;;;;;;;7.69;100.00;100844.69;5048134;28;20029;-70
2023/12/30 01:04:25;;;;;;;15.95;2.50;;;;;;;7.67;100.00;100841.22;5033297;28;20044;-70
2023/12/30 01:06:52;;;;;;;12.55;2.20;;;;;;;7.64;100.00;100846.50;5046075;28;20053;-71
2023/12/30 01:09:19;;;;;;;12.07;2.28;;;;;;;7.59;100.00;100852.72;5050187;28;20659;-70
2023/12/30 01:11:46;;;;;;;10.73;2.20;;;;;;;7.56;100.00;100857.16;5049847;28;20110;-70
2023/12/30 01:14:14;;;;;;;12.07;2.20;;;;;;;7.52;100.00;100858.09;5037127;28;20037;-70
2023/12/30 01:16:42;;;;;;;12.07;1.95;;;;;;;7.45;100.00;100866.09;5050823;28;20048;-70
2023/12/30 01:19:09;;;;;;;13.38;2.58;;;;;;;7.41;100.00;100874.88;5031973;28;20465;-70
2023/12/30 01:21:37;;;;;;;7.43;2.00;;;;;;;7.38;100.00;100874.94;5050443;28;20102;-70
2023/12/30 01:24:04;;;;;;;12.60;2.20;;;;;;;7.35;100.00;100882.00;5037384;28;20052;-72
2023/12/30 01:26:31;;;;;;;14.85;2.83;;;;;;;7.29;100.00;100882.94;5049935;28;20112;-70
2023/12/30 01:28:58;;;;;;;9.48;1.63;;;;;;;7.27;100.00;100883.00;5048713;28;20099;-72
2023/12/30 01:31:28;;;;;;;9.95;2.03;;;;;;;7.23;100.00;100888.31;5056158;28;20044;-70
2023/12/30 01:33:56;;;;;;;12.43;2.30;;;;;;;7.20;100.00;100888.34;5049120;28;20053;-70
2023/12/30 01:36:23;;;;;;;12.32;1.83;;;;;;;7.15;100.00;100899.78;5058475;28;20048;-71
2023/12/30 01:38:51;;;;;;;10.25;2.08;;;;;;;7.14;100.00;100892.81;5030158;28;20053;-71
2023/12/30 01:41:19;;;;;;;12.85;2.28;;;;;;;7.14;100.00;100895.44;5031572;28;20076;-70
2023/12/30 01:43:46;;;;;;;8.63;1.98;;;;;;;7.13;100.00;100887.56;5049694;28;20075;-70
2023/12/30 01:46:13;;;;;;;7.28;1.75;;;;;;;7.12;100.00;100894.56;5065958;28;20500;-70
2023/12/30 01:48:41;;;;;;;10.85;2.55;;;;;;;7.14;100.00;100886.69;5051429;28;20052;-70
2023/12/30 01:51:09;;;;;;;11.18;1.98;;;;;;;7.15;100.00;100902.41;5048815;28;20111;-70
2023/12/30 01:53:52;;;;;;;11.27;1.95;;;;;;;7.19;100.00;100904.97;5046944;28;20565;-70
2023/12/30 01:56:23;;;;;;;11.13;2.05;;;;;;;7.17;100.00;100902.38;5039538;28;20769;-70
2023/12/30 01:58:51;;;;;;;11.40;1.80;;;;;;;7.15;100.00;100910.28;5033818;28;20056;-72
2023/12/30 02:01:24;;;;;;;12.50;1.95;;;;;;;7.15;100.00;100907.66;5041185;28;20047;-72
2023/12/30 02:03:52;;;;;;;10.48;2.25;;;;;;;7.17;100.00;100912.84;5059437;28;20852;-70
2023/12/30 02:06:19;;;;;;;11.63;1.95;;;;;;;7.15;100.00;100914.63;5059152;28;20041;-70
2023/12/30 02:08:47;;;;;;;10.07;2.08;;;;;;;7.16;100.00;100913.75;5037155;28;20045;-70
2023/12/30 02:11:15;;;;;;;7.90;1.75;;;;;;;7.13;100.00;100919.91;5035633;28;20041;-70
2023/12/30 02:13:43;;;;;;;13.68;2.03;;;;;;;7.11;100.00;100912.97;5034554;28;20037;-70
2023/12/30 02:16:11;;;;;;;9.35;1.90;;;;;;;7.09;100.00;100915.59;5043559;28;20528;-72
2023/12/30 02:18:38;;;;;;;9.05;1.88;;;;;;;7.07;100.00;100917.34;5029465;28;20599;-70
2023/12/30 02:21:07;;;;;;;11.55;1.83;;;;;;;7.05;100.00;100919.16;5036268;28;20037;-71
2023/12/30 02:23:34;;;;;;;11.32;1.98;;;;;;;7.02;100.00;100920.97;5044675;28;20041;-70
2023/12/30 02:26:02;;;;;;;11.25;2.00;;;;;;;7.02;100.00;100932.31;5047950;28;20048;-70
2023/12/30 02:28:29;;;;;;;7.25;1.83;;;;;;;7.01;100.00;100938.44;5049008;28;20095;-71
2023/12/30 02:30:56;;;;;;;9.95;2.13;;;;;;;6.98;100.00;100931.50;5052613;28;20598;-70
2023/12/30 02:33:23;;;;;;;12.13;2.63;;;;;;;6.98;100.00;100939.34;5031148;28;20049;-70
2023/12/30 02:35:51;;;;;;;10.00;2.20;;;;;;;6.97;100.00;100936.72;5048633;28;20120;-70
2023/12/30 02:38:18;;;;;;;13.63;2.55;;;;;;;6.96;100.00;100932.41;5033483;28;20041;-70
2023/12/30 02:40:46;;;;;;;11.65;2.47;;;;;;;6.94;100.00;100931.56;5053513;28;20048;-70
2023/12/30 02:43:13;;;;;;;9.60;2.08;;;;;;;6.93;100.00;100925.41;5049067;28;20048;-70
2023/12/30 02:45:40;;;;;;;9.30;2.08;;;;;;;6.91;100.00;100932.47;5022927;28;20057;-70
2023/12/30 02:48:08;;;;;;;11.93;2.50;;;;;;;6.91;100.00;100937.72;5059380;28;20048;-70
2023/12/30 02:50:35;;;;;;;12.90;2.22;;;;;;;6.92;100.00;100939.41;5029908;28;20086;-70
2023/12/30 02:53:03;;;;;;;12.13;2.42;;;;;;;6.91;100.00;100936.81;5051101;28;20037;-70
2023/12/30 02:55:30;;;;;;;10.93;2.47;;;;;;;6.89;100.00;100935.97;5015682;28;20041;-70
2023/12/30 02:57:57;;;;;;;15.43;2.33;;;;;;;6.89;100.00;100941.22;5047538;28;20049;-70
2023/12/30 03:00:24;;;;;;;9.65;2.08;;;;;;;6.87;100.00;100946.50;5048247;28;20499;-70
2023/12/30 03:02:52;;;;;;;12.95;2.15;;;;;;;6.87;100.00;100949.09;5048410;28;20056;-70
2023/12/30 03:05:19;;;;;;;11.68;2.00;;;;;;;6.87;100.00;100950.88;5053670;28;20041;-70
2023/12/30 03:07:47;;;;;;;11.02;2.55;;;;;;;6.86;100.00;100950.00;5034933;28;20095;-70
2023/12/30 03:10:14;;;;;;;14.55;2.33;;;;;;;6.82;100.00;100946.53;5067096;28;20044;-70
2023/12/30 03:12:41;;;;;;;13.05;2.08;;;;;;;6.81;100.00;100941.34;5047482;28;20096;-70
2023/12/30 03:15:09;;;;;;;12.95;2.75;;;;;;;6.77;100.00;100948.34;5012050;28;20045;-70
2023/12/30 03:17:36;;;;;;;13.48;2.10;;;;;;;6.74;100.00;100942.28;5011879;28;20037;-70
2023/12/30 03:20:09;;;;;;;10.35;2.53;;;;;;;6.71;100.00;100950.19;5031170;28;20088;-70
2023/12/30 03:22:37;;;;;;;11.75;2.13;;;;;;;6.68;100.00;100951.09;5039984;28;20075;-70
2023/12/30 03:25:05;;;;;;;17.02;3.15;;;;;;;6.66;100.00;100947.63;5031951;28;20220;-70
2023/12/30 03:27:32;;;;;;;13.75;2.67;;;;;;;6.66;100.00;100947.63;5045650;28;20084;-70
2023/12/30 03:29:59;;;;;;;10.02;2.17;;;;;;;6.66;100.00;100958.13;5043637;28;20052;-70
2023/12/30 03:32:28;;;;;;;10.75;2.15;;;;;;;6.68;100.00;100961.56;5045811;28;20037;-70
2023/12/30 03:34:56;;;;;;;12.80;2.42;;;;;;;6.67;100.00;100960.72;5045800;28;20122;-70
2023/12/30 03:37:23;;;;;;;12.32;2.75;;;;;;;6.66;100.00;100958.13;5045368;28;20045;-70
2023/12/30 03:39:51;;;;;;;13.85;2.30;;;;;;;6.67;100.00;100962.44;5029770;28;20050;-70
2023/12/30 03:42:19;;;;;;;11.73;2.45;;;;;;;6.66;100.00;100952.88;5009865;28;20107;-70
2023/12/30 03:44:46;;;;;;;12.93;3.38;;;;;;;6.64;100.00;100957.25;5045213;28;20135;-70
2023/12/30 03:47:13;;;;;;;15.75;3.00;;;;;;;6.64;100.00;100955.50;5035650;28;20114;-70
2023/12/30 03:49:40;;;;;;;11.68;2.85;;;;;;;6.62;100.00;100962.50;5036466;28;20049;-70
2023/12/30 03:52:07;;;;;;;8.60;3.00;;;;;;;6.62;100.00;100962.50;5029151;28;20037;-70
2023/12/30 03:54:34;;;;;;;16.75;3.78;;;;;;;6.63;100.00;100963.38;5029404;28;20118;-70
2023/12/30 03:57:01;;;;;;;14.43;3.75;;;;;;;6.64;100.00;100967.75;5048412;28;20037;-70
2023/12/30 03:59:29;;;;;;;11.00;2.65;;;;;;;6.64;100.00;100963.34;5047471;28;20083;-70
2023/12/30 04:01:56;;;;;;;13.45;3.15;;;;;;;6.64;100.00;100965.97;5045915;28;20041;-70
2023/12/30 04:04:23;;;;;;;17.38;3.50;;;;;;;6.65;100.00;100975.56;5046967;28;20060;-70
2023/12/30 04:06:50;;;;;;;13.20;2.75;;;;;;;6.64;100.00;100970.38;5046686;28;20045;-70
2023/12/30 04:09:17;;;;;;;11.70;2.63;;;;;;;6.64;100.00;100967.75;5030164;28;20045;-70
2023/12/30 04:11:45;;;;;;;11.25;2.80;;;;;;;6.64;100.00;100970.38;5033492;28;20073;-70
2023/12/30 04:14:12;;;;;;;12.05;2.63;;;;;;;6.63;100.00;100973.88;5045792;28;20045;-70
2023/12/30 04:16:39;;;;;;;12.07;2.33;;;;;;;6.61;100.00;100968.66;5011834;28;20095;-70
2023/12/30 04:19:06;;;;;;;12.38;2.60;;;;;;;6.59;100.00;100972.16;5027578;28;20040;-70
2023/12/30 04:21:34;;;;;;;14.10;3.03;;;;;;;6.57;100.00;100976.53;5056942;28;20072;-70
2023/12/30 04:24:01;;;;;;;14.85;2.80;;;;;;;6.57;100.00;100968.69;5030120;28;20448;-70
2023/12/30 04:26:28;;;;;;;13.18;2.47;;;;;;;6.56;100.00;100970.44;5036228;28;20064;-70
2023/12/30 04:28:56;;;;;;;11.50;2.70;;;;;;;6.55;100.00;100973.09;5017008;28;20054;-69
2023/12/30 04:31:23;;;;;;;13.20;2.10;;;;;;;6.54;100.00;100980.06;5045419;28;20862;-70
2023/12/30 04:33:50;;;;;;;14.77;3.03;;;;;;;6.56;100.00;100975.69;5046789;28;20185;-70
2023/12/30 04:36:17;;;;;;;14.50;2.70;;;;;;;6.53;100.00;100973.09;5047289;28;20104;-70
2023/12/30 04:38:45;;;;;;;13.05;2.65;;;;;;;6.52;100.00;100977.47;5036252;28;20107;-70
2023/12/30 04:41:13;;;;;;;14.77;2.30;;;;;;;6.50;100.00;100975.78;5033537;28;20137;-70
2023/12/30 04:43:41;;;;;;;16.85;2.75;;;;;;;6.47;100.00;100976.66;5033084;28;20564;-70
2023/12/30 04:46:10;;;;;;;14.65;2.45;;;;;;;6.46;100.00;100972.28;5038843;28;20128;-70
2023/12/30 04:48:38;;;;;;;10.15;2.40;;;;;;;6.44;100.00;100981.94;5046231;28;20052;-70
2023/12/30 04:51:05;;;;;;;13.60;2.40;;;;;;;6.43;100.00;100981.94;5036885;28;20513;-70
2023/12/30 04:53:33;;;;;;;15.82;2.95;;;;;;;6.41;100.00;100981.09;5026063;28;20134;-70
2023/12/30 04:56:00;;;;;;;11.13;2.13;;;;;;;6.39;100.00;100985.50;5032925;28;20048;-70
2023/12/30 04:58:27;;;;;;;12.95;2.20;;;;;;;6.36;100.00;100987.25;5036738;28;20060;-70
2023/12/30 05:00:56;;;;;;;14.70;2.47;;;;;;;6.35;100.00;100980.28;5032616;28;20044;-71
2023/12/30 05:03:23;;;;;;;14.38;2.65;;;;;;;6.35;100.00;100992.50;5057915;28;20048;-70
2023/12/30 05:05:51;;;;;;;10.15;2.30;;;;;;;6.32;100.00;100997.78;5041604;28;20048;-70
2023/12/30 05:08:18;;;;;;;14.10;2.38;;;;;;;6.30;100.00;101000.41;5054715;28;20041;-70
2023/12/30 05:10:45;;;;;;;12.20;2.53;;;;;;;6.30;100.00;100995.19;5046428;28;20068;-70
2023/12/30 05:13:12;;;;;;;15.65;2.47;;;;;;;6.28;100.00;100996.06;5045461;28;20124;-70
2023/12/30 05:15:39;;;;;;;15.13;2.85;;;;;;;6.28;100.00;100996.94;5044395;28;20045;-70
2023/12/30 05:18:06;;;;;;;14.02;2.50;;;;;;;6.28;100.00;101001.28;5036498;28;20041;-70
2023/12/30 05:20:33;;;;;;;13.80;2.53;;;;;;;6.28;100.00;101003.91;5033472;28;20235;-70
2023/12/30 05:23:00;;;;;;;14.23;2.63;;;;;;;6.28;100.00;101009.16;5030978;28;20699;-70
2023/12/30 05:25:28;;;;;;;13.07;2.65;;;;;;;6.26;100.00;101011.78;5050000;28;20682;-70
2023/12/30 05:27:55;;;;;;;17.10;2.90;;;;;;;6.23;100.00;101017.03;5043753;28;20052;-70
2023/12/30 05:30:23;;;;;;;12.88;2.22;;;;;;;6.19;100.00;101008.34;5031924;28;20065;-70
2023/12/30 05:32:50;;;;;;;15.50;2.88;;;;;;;6.18;100.00;101017.09;5048915;28;20401;-70
2023/12/30 05:35:17;;;;;;;13.82;2.92;;;;;;;6.16;100.00;101016.22;5048710;28;20041;-70
2023/12/30 05:37:44;;;;;;;15.32;2.40;;;;;;;6.17;100.00;101025.81;5032495;28;20048;-69
2023/12/30 05:40:11;;;;;;;14.95;2.20;;;;;;;6.16;100.00;101018.00;5049357;28;20503;-68
2023/12/30 05:42:40;;;;;;;15.98;3.25;;;;;;;6.17;100.00;101020.59;5047369;28;20369;-70
2023/12/30 05:45:07;;;;;;;13.20;2.42;;;;;;;6.15;100.00;101016.25;5049420;28;20037;-70
2023/12/30 05:47:35;;;;;;;15.18;2.67;;;;;;;6.17;100.00;101015.34;5045466;28;20036;-69
2023/12/30 05:50:02;;;;;;;16.45;2.90;;;;;;;6.19;100.00;101020.59;5047332;28;20048;-69
2023/12/30 05:52:30;;;;;;;11.10;2.80;;;;;;;6.18;100.00;101030.19;5045805;28;20126;-70
2023/12/30 05:54:57;;;;;;;17.10;2.65;;;;;;;6.19;100.00;101023.22;5045605;28;20033;-70
2023/12/30 05:57:24;;;;;;;22.73;2.92;;;;;;;6.18;100.00;101022.31;5049746;28;20053;-70
2023/12/30 05:59:51;;;;;;;12.05;2.08;;;;;;;6.19;100.00;101025.84;5048070;28;20061;-71
2023/12/30 06:02:18;;;;;;;17.02;2.67;;;;;;;6.17;100.00;101038.06;5030902;28;20055;-70
2023/12/30 06:04:45;;;;;;;11.95;2.10;;;;;;;6.16;100.00;101036.31;5048486;28;20493;-70
2023/12/30 06:07:13;;;;;;;21.50;3.28;;;;;;;6.16;100.00;101041.56;5049249;28;20076;-71
2023/12/30 06:09:41;;;;;;;18.13;2.92;;;;;;;6.17;100.00;101040.69;5030266;28;20045;-70
2023/12/30 06:12:09;;;;;;;14.70;2.72;;;;;;;6.16;100.00;101047.66;5018753;28;20041;-70
2023/12/30 06:14:36;;;;;;;17.20;3.28;;;;;;;6.19;100.00;101046.78;5015399;28;20616;-70
2023/12/30 06:17:04;;;;;;;13.75;2.50;;;;;;;6.17;100.00;101043.28;5028285;28;20053;-69
2023/12/30 06:19:33;;;;;;;15.55;3.13;;;;;;;6.17;100.00;101053.75;5048801;28;20076;-69
2023/12/30 06:22:01;;;;;;;12.07;2.60;;;;;;;6.16;100.00;101047.66;5047853;28;20037;-70
2023/12/30 06:24:28;;;;;;;14.57;2.70;;;;;;;6.17;100.00;101048.53;5046704;28;20129;-70
2023/12/30 06:26:55;;;;;;;13.40;2.80;;;;;;;6.16;100.00;101054.66;5051637;28;20052;-70
2023/12/30 06:29:23;;;;;;;20.83;3.20;;;;;;;6.14;100.00;101057.28;5046005;28;20668;-70
2023/12/30 06:31:53;;;;;;;12.18;2.80;;;;;;;6.13;100.00;101058.16;5047143;28;20541;-70
2023/12/30 06:34:20;;;;;;;18.20;2.88;;;;;;;6.10;100.00;101059.94;5047036;28;20033;-70
2023/12/30 06:36:48;;;;;;;13.18;2.75;;;;;;;6.10;100.00;101067.81;5048863;28;20553;-69
2023/12/30 06:39:18;;;;;;;14.90;2.35;;;;;;;6.11;100.00;101073.00;5030219;28;20037;-69
2023/12/30 06:41:45;;;;;;;17.52;3.40;;;;;;;6.07;100.00;101068.66;5048351;28;20540;-68
2023/12/30 06:44:16;;;;;;;19.02;2.80;;;;;;;6.06;100.00;101066.94;5030274;28;20532;-69
2023/12/30 06:46:44;;;;;;;12.90;2.10;;;;;;;6.06;100.00;101072.16;5046586;28;20112;-69
2023/12/30 06:49:22;;;;;;;15.43;2.85;;;;;;;6.05;100.00;101079.16;5046844;28;20126;-78
2023/12/30 06:51:49;;;;;;;12.63;2.95;;;;;;;6.10;100.00;101076.50;5033817;28;20136;-66
2023/12/30 06:54:16;;;;;;;13.25;2.85;;;;;;;6.21;100.00;101076.41;5026130;28;20047;-66
2023/12/30 06:56:47;;;;;;;18.52;2.60;;;;;;;6.31;100.00;101082.44;5048072;28;20443;-67
2023/12/30 06:59:14;;;;;;;17.95;2.53;;;;;;;6.39;100.00;101083.25;5047996;28;20048;-66
2023/12/30 07:01:41;;;;;;;14.90;2.85;;;;;;;6.46;100.00;101089.28;5029815;28;20127;-66
2023/12/30 07:04:09;;;;;;;13.63;2.33;;;;;;;6.49;100.00;101079.66;5048609;28;20188;-66
2023/12/30 07:06:36;;;;;;;16.90;2.65;;;;;;;6.53;100.00;101073.50;5048954;28;20041;-67
2023/12/30 07:09:07;;;;;;;11.80;2.40;;;;;;;6.57;100.00;101078.69;5030577;28;20045;-67
2023/12/30 07:11:34;;;;;;;14.55;2.50;;;;;;;6.58;100.00;101083.94;5045941;28;20048;-66
2023/12/30 07:14:02;;;;;;;13.48;2.55;;;;;;;6.60;100.00;101090.03;5021951;28;20048;-65
2023/12/30 07:16:29;;;;;;;16.48;2.70;;;;;;;6.59;100.00;101085.69;5045815;28;20117;-66
2023/12/30 07:18:56;;;;;;;15.02;2.47;;;;;;;6.61;100.00;101089.16;5044709;28;20040;-66
2023/12/30 07:21:23;;;;;;;15.77;3.20;;;;;;;6.63;100.00;101095.22;5007195;28;20091;-67
2023/12/30 07:23:54;;;;;;;16.63;2.60;;;;;;;6.66;100.00;101103.06;5028435;28;20049;-66
2023/12/30 07:26:21;;;;;;;18.00;2.40;;;;;;;6.71;100.00;101092.53;5047085;28;20453;-68
2023/12/30 07:28:48;;;;;;;13.48;2.70;;;;;;;6.76;100.00;101097.72;5032962;28;20053;-67
2023/12/30 07:31:15;;;;;;;13.93;2.38;;;;;;;6.84;100.00;101094.16;5046073;28;20123;-66
2023/12/30 07:33:43;;;;;;;12.45;2.05;;;;;;;6.94;100.00;101089.66;5032817;28;20063;-67
2023/12/30 07:36:12;;;;;;;16.20;2.65;;;;;;;7.01;100.00;101081.75;5046991;28;20059;-67
2023/12/30 07:38:39;;;;;;;14.93;2.25;;;;;;;7.06;100.00;101087.78;5052358;28;20041;-68
2023/12/30 07:41:06;;;;;;;13.70;2.50;;;;;;;7.10;100.00;101092.97;5046795;28;20068;-67
2023/12/30 07:43:33;;;;;;;10.60;2.47;;;;;;;7.12;100.00;101093.84;5047697;28;20044;-68
2023/12/30 07:46:01;;;;;;;17.48;2.45;;;;;;;7.11;100.00;101099.13;5030666;28;20571;-68
2023/12/30 07:48:30;;;;;;;16.73;2.65;;;;;;;7.09;100.00;101106.13;5047294;28;20064;-68
2023/12/30 07:50:57;;;;;;;14.98;2.13;;;;;;;7.09;100.00;101122.72;5048354;28;20049;-68
2023/12/30 07:53:24;;;;;;;11.95;2.78;;;;;;;7.08;100.00;101130.59;5048568;28;20452;-68
2023/12/30 07:55:51;;;;;;;14.55;2.80;;;;;;;7.05;100.00;101135.88;5047524;28;20052;-67
2023/12/30 07:58:18;;;;;;;11.20;2.15;;;;;;;6.99;100.00;101144.66;5047660;28;20524;-67
2023/12/30 08:00:46;;;;;;;17.05;2.60;;;;;;;6.95;100.00;101135.13;5047358;28;20056;-67
2023/12/30 08:03:14;;;;;;;11.18;2.08;;;;;;;6.92;100.00;101137.75;5042164;28;20037;-68
2023/12/30 08:05:41;;;;;;;12.77;2.50;;;;;;;6.92;100.00;101143.00;5043355;28;20587;-67
2023/12/30 08:08:09;;;;;;;11.75;2.30;;;;;;;6.91;100.00;101144.75;5029839;28;20041;-67
2023/12/30 08:10:38;;;;;;;17.33;2.50;;;;;;;6.90;100.00;101152.63;5041170;28;20567;-68
2023/12/30 08:13:05;;;;;;;12.20;2.88;;;;;;;6.95;100.00;101162.19;5028014;28;20076;-67
2023/12/30 08:15:33;;;;;;;10.75;2.88;;;;;;;6.99;100.00;101156.03;5044435;28;20118;-67
2023/12/30 08:18:00;;;;;;;13.88;2.35;;;;;;;7.08;100.00;101159.44;5047601;28;20045;-67
2023/12/30 08:20:27;;;;;;;11.60;2.38;;;;;;;7.15;100.00;101158.47;5042291;28;20072;-67
2023/12/30 08:22:54;;;;;;;12.00;2.10;;;;;;;7.23;100.00;101151.38;5030705;28;20079;-67
2023/12/30 08:25:21;;;;;;;10.07;2.05;;;;;;;7.26;100.00;101161.84;5011842;28;20068;-68
2023/12/30 08:27:49;;;;;;;9.38;2.30;;;;;;;7.27;100.00;101149.63;5047410;28;20045;-67
2023/12/30 08:30:16;;;;;;;10.95;2.03;;;;;;;7.29;100.00;101147.81;5048163;28;20052;-67
2023/12/30 08:32:43;;;;;;;12.65;2.63;;;;;;;7.34;100.00;101158.25;5046548;28;20041;-67
2023/12/30 08:35:11;;;;;;;9.82;2.20;;;;;;;7.37;100.00;101161.75;5048205;28;20033;-67
2023/12/30 08:37:39;;;;;;;14.25;2.70;;;;;;;7.41;100.00;101157.31;5057881;28;20060;-67
2023/12/30 08:40:10;;;;;;;11.27;2.40;;;;;;;7.39;100.00;101154.69;5045943;28;20048;-69
2023/12/30 08:42:37;;;;;;;11.80;2.50;;;;;;;7.36;100.00;101148.63;5048452;28;20055;-70
2023/12/30 08:45:06;;;;;;;13.90;2.20;;;;;;;7.30;100.00;101154.81;5046992;28;20033;-70
2023/12/30 08:47:34;;;;;;;15.77;2.42;;;;;;;7.24;100.00;101153.13;5049705;28;20051;-70
2023/12/30 08:50:03;;;;;;;13.15;2.58;;;;;;;7.20;100.00;101153.19;5047351;28;20082;-70
2023/12/30 08:52:31;;;;;;;14.32;2.70;;;;;;;7.19;100.00;101160.19;5048595;28;20045;-70
2023/12/30 08:54:58;;;;;;;15.98;2.60;;;;;;;7.18;100.00;101161.06;5031242;28;20561;-70
2023/12/30 08:57:26;;;;;;;13.15;2.40;;;;;;;7.16;100.00;101170.72;5050208;28;20133;-69
2023/12/30 08:59:53;;;;;;;12.45;2.40;;;;;;;7.14;100.00;101172.47;5049400;28;20064;-70
2023/12/30 09:02:20;;;;;;;12.57;2.33;;;;;;;7.17;100.00;101171.59;5042957;28;20087;-69
2023/12/30 09:04:48;;;;;;;12.93;2.20;;;;;;;7.19;100.00;101175.03;5045238;28;20119;-70
2023/12/30 09:07:15;;;;;;;14.93;2.25;;;;;;;7.20;100.00;101171.53;5046007;28;20119;-70
2023/12/30 09:09:42;;;;;;;14.13;2.67;;;;;;;7.22;100.00;101167.16;5049341;28;20088;-70
2023/12/30 09:12:09;;;;;;;9.68;2.10;;;;;;;7.25;100.00;101169.75;5050320;28;20045;-70
2023/12/30 09:14:36;;;;;;;13.38;2.70;;;;;;;7.28;100.00;101172.31;5043118;28;20068;-70
2023/12/30 09:17:03;;;;;;;13.23;2.90;;;;;;;7.32;100.00;101181.91;5050000;28;21380;-70
2023/12/30 09:19:30;;;;;;;10.98;2.63;;;;;;;7.35;100.00;101184.50;5050356;28;20053;-69
2023/12/30 09:21:58;;;;;;;12.43;2.55;;;;;;;7.39;100.00;101196.66;5058209;28;20044;-70
2023/12/30 09:24:25;;;;;;;11.68;2.88;;;;;;;7.42;100.00;101198.41;5068149;28;20386;-69
2023/12/30 09:26:52;;;;;;;11.25;2.70;;;;;;;7.44;100.00;101199.25;5042953;28;20056;-69
2023/12/30 09:29:19;;;;;;;10.98;2.65;;;;;;;7.45;100.00;101199.25;5050084;28;20129;-69
2023/12/30 09:31:46;;;;;;;17.95;3.28;;;;;;;7.48;100.00;101198.34;5030027;28;20044;-69
2023/12/30 09:34:13;;;;;;;15.40;2.72;;;;;;;7.51;100.00;101198.31;5051286;28;20049;-69
2023/12/30 09:36:49;;;;;;;13.77;2.80;;;;;;;7.54;100.00;101195.63;5057877;28;20037;-70
2023/12/30 09:39:16;;;;;;;12.85;2.70;;;;;;;7.58;100.00;101205.22;5056034;28;20156;-70
2023/12/30 09:41:43;;;;;;;14.40;3.10;;;;;;;7.60;100.00;101205.19;5049327;28;20144;-70
2023/12/30 09:44:12;;;;;;;14.23;3.20;;;;;;;7.62;100.00;101208.66;5036587;28;20068;-70
2023/12/30 09:46:40;;;;;;;18.58;2.83;;;;;;;7.65;100.00;101210.38;5049450;28;20041;-69
2023/12/30 09:49:09;;;;;;;14.65;2.90;;;;;;;7.68;100.00;101210.34;5050442;28;20048;-70
2023/12/30 09:51:36;;;;;;;12.82;3.05;;;;;;;7.71;100.00;101218.19;5048934;28;20420;-69
2023/12/30 09:54:03;;;;;;;14.65;2.97;;;;;;;7.74;100.00;101218.13;5043079;28;20049;-69
2023/12/30 09:56:32;;;;;;;22.38;3.85;;;;;;;7.78;100.00;101207.56;5046153;28;20503;-70
2023/12/30 09:59:00;;;;;;;13.48;2.80;;;;;;;7.83;100.00;101220.66;5069522;28;20048;-70
2023/12/30 10:01:30;;;;;;;12.30;2.90;;;;;;;7.87;100.00;101222.34;5070718;28;20045;-70
2023/12/30 10:03:57;;;;;;;14.25;2.60;;;;;;;7.92;100.00;101215.28;5068695;28;20068;-69
2023/12/30 10:06:25;;;;;;;13.07;2.90;;;;;;;7.98;100.00;101211.72;5054543;28;20175;-69
2023/12/30 10:08:53;;;;;;;12.43;3.00;;;;;;;8.03;100.00;101224.78;5049849;28;20071;-70
2023/12/30 10:11:20;;;;;;;14.73;2.90;;;;;;;8.06;100.00;101214.22;5048705;28;20068;-70
2023/12/30 10:13:51;;;;;;;14.20;2.85;;;;;;;8.07;100.00;101214.22;5052890;28;20056;-70
2023/12/30 10:16:19;;;;;;;15.93;3.15;;;;;;;8.14;100.00;101214.97;5052154;28;20056;-70
2023/12/30 10:18:46;;;;;;;18.98;3.00;;;;;;;8.17;100.00;101212.31;5056264;28;20045;-69
2023/12/30 10:21:16;;;;;;;14.05;3.05;;;;;;;8.21;100.00;101211.38;5048647;28;20079;-70
2023/12/30 10:23:43;;;;;;;15.52;3.70;;;;;;;8.24;100.00;101208.69;5049841;28;20044;-69
2023/12/30 10:26:15;;;;;;;13.82;2.92;;;;;;;8.27;100.00;101212.16;5049348;28;20057;-70
2023/12/30 10:28:42;;;;;;;14.98;3.08;;;;;;;8.29;100.00;101211.25;5047078;28;20451;-70
2023/12/30 10:31:11;;;;;;;14.25;3.33;;;;;;;8.33;100.00;101212.94;5049297;28;20147;-69
2023/12/30 10:33:40;;;;;;;19.13;3.00;;;;;;;8.35;100.00;101208.53;5025895;28;20037;-70
2023/12/30 10:36:10;;;;;;;18.20;3.47;;;;;;;8.37;100.00;101206.78;5010947;28;20037;-70
2023/12/30 10:38:38;;;;;;;18.30;3.65;;;;;;;8.39;100.00;101209.38;5055110;28;20052;-70
2023/12/30 10:41:05;;;;;;;14.57;3.40;;;;;;;8.41;100.00;101212.84;5064291;28;20037;-70
2023/12/30 10:43:32;;;;;;;12.73;3.25;;;;;;;8.42;100.00;101211.06;5047436;28;20044;-70
2023/12/30 10:46:03;;;;;;;12.70;3.47;;;;;;;8.41;100.00;101212.84;5048859;28;20107;-69
2023/12/30 10:48:37;;;;;;;17.98;3.45;;;;;;;8.44;100.00;101214.53;5041031;28;20159;-70
2023/12/30 10:51:06;;;;;;;15.10;3.63;;;;;;;8.45;100.00;101214.50;5046067;28;20041;-70
2023/12/30 10:53:44;;;;;;;16.25;3.85;;;;;;;8.50;100.00;101211.84;5052445;28;20055;-69
2023/12/30 10:56:23;;;;;;;15.20;3.85;;;;;;;8.55;100.00;101210.03;5061909;28;20068;-69
2023/12/30 10:58:52;;;;;;;13.65;3.85;;;;;;;8.62;100.00;101206.41;5031860;28;20457;-70
2023/12/30 11:01:22;;;;;;;15.00;3.58;;;;;;;8.69;100.00;101209.81;5044152;28;20459;-69
2023/12/30 11:03:49;;;;;;;15.10;3.67;;;;;;;8.75;100.00;101206.19;5046867;28;20400;-70
2023/12/30 11:06:36;;;;;;;17.02;3.85;;;;;;;8.81;100.00;101208.72;5048549;28;20083;-70
2023/12/30 11:09:11;;;;;;;15.90;3.88;;;;;;;8.85;100.00;101200.75;5047346;28;20151;-69
2023/12/30 11:11:52;;;;;;;;;;;;;;;8.88;100.00;101197.22;5047251;28;20095;-70
2023/12/30 11:14:20;;;;;;;15.77;3.78;;;;;;;8.91;100.00;101185.78;5046944;28;20281;-70
2023/12/30 11:16:51;;;;;;;14.98;3.67;;;;;;;8.94;100.00;101177.84;5047653;28;20440;-70
2023/12/30 11:19:31;;;;;;;14.93;3.42;;;;;;;8.98;100.00;101179.50;5048243;28;20445;-70